createdAt,value
2023-01-01T00:01:32.840Z,13.48
2023-01-01T00:04:06.704Z,13.49
2023-01-01T00:06:35.078Z,13.47
2023-01-01T00:09:21.188Z,13.60
2023-01-01T00:11:52.464Z,13.65
2023-01-01T00:14:20.635Z,13.51
2023-01-01T00:16:48.879Z,13.53
2023-01-01T00:19:18.803Z,13.50
2023-01-01T00:21:47.362Z,13.55
2023-01-01T00:38:47.089Z,13.46
2023-01-01T00:41:16.921Z,13.47
2023-01-01T00:43:47.963Z,13.46
2023-01-01T00:46:16.681Z,13.42
2023-01-01T00:48:44.952Z,13.44
2023-01-01T00:51:13.842Z,13.46
2023-01-01T00:53:42.212Z,13.38
2023-01-01T00:56:12.006Z,13.38
2023-01-01T00:58:46.222Z,13.42
2023-01-01T01:01:29.386Z,13.41
2023-01-01T01:04:00.658Z,13.46
2023-01-01T01:06:32.220Z,13.44
2023-01-01T01:09:00.714Z,13.54
2023-01-01T01:11:30.290Z,13.48
2023-01-01T01:13:59.289Z,13.38
2023-01-01T01:16:30.621Z,13.43
2023-01-01T01:19:03.463Z,13.37
2023-01-01T01:21:37.981Z,13.32
2023-01-01T01:24:14.956Z,13.42
2023-01-01T01:26:48.394Z,13.41
2023-01-01T01:29:36.130Z,13.36
2023-01-01T01:32:14.261Z,13.31
2023-01-01T01:34:46.121Z,13.35
2023-01-01T01:37:14.823Z,13.36
2023-01-01T01:39:43.226Z,13.38
2023-01-01T01:42:18.332Z,13.33
2023-01-01T01:44:58.011Z,13.39
2023-01-01T01:47:32.533Z,13.40
2023-01-01T01:50:07.661Z,13.40
2023-01-01T01:52:43.793Z,13.47
2023-01-01T01:55:12.912Z,13.39
2023-01-01T01:57:43.526Z,13.28
2023-01-01T02:00:13.575Z,13.25
2023-01-01T02:02:49.632Z,13.40
2023-01-01T02:05:20.360Z,13.27
2023-01-01T02:07:48.929Z,13.19
2023-01-01T02:10:17.329Z,13.27
2023-01-01T02:12:47.229Z,13.26
2023-01-01T02:15:16.420Z,13.25
2023-01-01T02:17:54.135Z,13.23
2023-01-01T02:20:33.870Z,13.25
2023-01-01T02:23:46.399Z,13.33
2023-01-01T02:26:43.398Z,13.28
2023-01-01T02:29:41.894Z,13.19
2023-01-01T02:32:17.689Z,13.30
2023-01-01T02:34:54.281Z,13.23
2023-01-01T02:37:28.965Z,13.24
2023-01-01T02:40:01.757Z,13.25
2023-01-01T02:42:31.880Z,13.16
2023-01-01T02:45:02.298Z,13.13
2023-01-01T02:47:30.665Z,13.11
2023-01-01T02:50:07.280Z,13.15
2023-01-01T02:52:50.880Z,13.17
2023-01-01T02:55:28.654Z,13.18
2023-01-01T02:58:25.551Z,13.17
2023-01-01T03:00:59.699Z,13.09
2023-01-01T03:03:34.380Z,13.19
2023-01-01T03:06:25.889Z,13.13
2023-01-01T03:09:03.444Z,13.11
2023-01-01T03:11:39.963Z,13.14
2023-01-01T03:14:14.434Z,13.04
2023-01-01T03:16:49.336Z,13.08
2023-01-01T03:19:21.004Z,13.11
2023-01-01T03:22:00.627Z,13.16
2023-01-01T03:24:36.659Z,13.15
2023-01-01T03:27:11.121Z,13.05
2023-01-01T03:29:45.419Z,13.09
2023-01-01T03:32:26.065Z,13.03
2023-01-01T03:34:56.492Z,13.10
2023-01-01T03:37:31.111Z,13.07
2023-01-01T03:40:01.138Z,13.04
2023-01-01T03:42:36.500Z,13.04
2023-01-01T03:45:10.988Z,12.94
2023-01-01T03:47:46.872Z,12.94
2023-01-01T03:50:16.463Z,12.83
2023-01-01T03:52:52.873Z,12.67
2023-01-01T03:55:28.165Z,12.62
2023-01-01T03:58:04.121Z,12.51
2023-01-01T04:00:37.474Z,12.55
2023-01-01T04:03:11.200Z,12.34
2023-01-01T04:05:41.103Z,12.40
2023-01-01T04:08:17.217Z,12.24
2023-01-01T04:10:48.966Z,12.30
2023-01-01T04:13:17.436Z,12.13
2023-01-01T04:15:46.001Z,12.14
2023-01-01T04:18:16.194Z,12.09
2023-01-01T04:20:44.787Z,12.04
2023-01-01T04:23:15.886Z,12.02
2023-01-01T04:25:44.341Z,12.11
2023-01-01T04:28:13.142Z,11.93
2023-01-01T04:33:09.323Z,11.87
2023-01-01T04:35:40.288Z,11.96
2023-01-01T04:38:09.111Z,11.95
2023-01-01T04:40:38.988Z,11.90
2023-01-01T04:43:08.149Z,12.00
2023-01-01T04:45:36.736Z,11.90
2023-01-01T04:48:09.191Z,11.98
2023-01-01T04:50:39.538Z,11.85
2023-01-01T04:53:08.323Z,11.79
2023-01-01T04:55:40.474Z,11.74
2023-01-01T04:58:11.671Z,11.78
2023-01-01T05:00:40.505Z,11.88
2023-01-01T05:03:09.421Z,11.82
2023-01-01T05:05:39.590Z,11.83
2023-01-01T05:08:16.893Z,11.83
2023-01-01T05:10:51.754Z,11.84
2023-01-01T05:13:40.745Z,11.81
2023-01-01T05:19:37.492Z,11.82
2023-01-01T05:23:06.456Z,11.90
2023-01-01T09:20:03.417Z,10.79
2023-01-01T09:22:58.633Z,10.76
2023-01-01T09:29:54.200Z,10.81
2023-01-01T09:40:00.217Z,10.97
2023-01-01T09:42:37.578Z,11.07
2023-01-01T09:45:21.432Z,11.04
2023-01-01T09:47:54.471Z,11.17
2023-01-01T09:50:27.095Z,11.18
2023-01-01T09:52:59.061Z,11.12
2023-01-01T09:55:32.019Z,11.23
2023-01-01T09:58:04.096Z,11.19
2023-01-01T10:00:39.616Z,11.23
2023-01-01T10:03:34.626Z,11.43
2023-01-01T10:06:11.970Z,11.37
2023-01-01T10:08:55.859Z,11.35
2023-01-01T10:11:33.289Z,11.36
2023-01-01T10:14:03.211Z,11.32
2023-01-01T10:16:36.141Z,11.30
2023-01-01T10:19:21.960Z,11.33
2023-01-01T10:21:52.390Z,11.38
2023-01-01T10:24:36.090Z,11.33
2023-01-01T10:27:29.582Z,11.43
2023-01-01T10:30:04.380Z,11.44
2023-01-01T10:32:39.256Z,11.53
2023-01-01T10:35:15.886Z,11.52
2023-01-01T10:37:44.349Z,11.54
2023-01-01T10:40:19.397Z,11.58
2023-01-01T10:42:51.955Z,11.61
2023-01-01T10:45:25.222Z,11.52
2023-01-01T10:48:17.531Z,11.49
2023-01-01T10:50:49.716Z,11.56
2023-01-01T10:53:25.342Z,11.61
2023-01-01T10:56:02.440Z,11.43
2023-01-01T10:58:45.499Z,11.54
2023-01-01T11:01:22.779Z,11.55
2023-01-01T11:03:59.527Z,11.60
2023-01-01T11:06:29.606Z,11.65
2023-01-01T11:09:00.222Z,11.60
2023-01-01T11:11:32.277Z,11.63
2023-01-01T11:14:06.288Z,11.64
2023-01-01T11:16:34.910Z,11.62
2023-01-01T11:19:05.666Z,11.60
2023-01-01T11:21:35.747Z,11.61
2023-01-01T11:24:21.893Z,11.64
2023-01-01T11:27:29.117Z,11.69
2023-01-01T11:30:23.787Z,11.65
2023-01-01T11:32:55.806Z,11.74
2023-01-01T11:35:26.508Z,11.76
2023-01-01T11:37:57.045Z,11.67
2023-01-01T11:40:27.822Z,11.72
2023-01-01T11:43:03.730Z,11.67
2023-01-01T11:45:38.054Z,11.76
2023-01-01T11:48:13.185Z,11.77
2023-01-01T11:50:43.225Z,11.69
2023-01-01T11:53:29.234Z,11.79
2023-01-01T11:56:10.466Z,11.76
2023-01-01T11:58:49.151Z,11.82
2023-01-01T12:01:27.934Z,11.96
2023-01-01T12:04:03.934Z,11.85
2023-01-01T12:06:37.619Z,12.06
2023-01-01T12:09:18.256Z,12.08
2023-01-01T12:12:27.895Z,12.15
2023-01-01T12:15:01.069Z,12.11
2023-01-01T12:17:36.682Z,12.16
2023-01-01T12:20:14.067Z,12.06
2023-01-01T12:22:44.031Z,12.16
2023-01-01T12:25:16.603Z,12.19
2023-01-01T12:28:02.173Z,12.22
2023-01-01T12:30:37.233Z,12.22
2023-01-01T12:33:23.077Z,12.32
2023-01-01T12:36:12.799Z,12.29
2023-01-01T12:39:10.666Z,12.19
2023-01-01T12:41:51.423Z,12.36
2023-01-01T12:44:34.692Z,12.28
2023-01-01T12:47:07.862Z,12.26
2023-01-01T12:49:55.413Z,12.27
2023-01-01T12:56:22.750Z,12.22
2023-01-01T12:58:57.928Z,12.24
2023-01-01T13:01:33.583Z,12.19
2023-01-01T13:04:05.693Z,12.18
2023-01-01T13:06:42.579Z,12.29
2023-01-01T13:09:16.941Z,12.18
2023-01-01T13:11:48.148Z,12.18
2023-01-01T13:14:16.597Z,12.22
2023-01-01T13:16:50.432Z,12.30
2023-01-01T13:19:36.547Z,12.32
2023-01-01T13:22:42.203Z,12.29
2023-01-01T13:25:22.432Z,12.25
2023-01-01T13:28:13.915Z,12.33
2023-01-01T13:30:52.869Z,12.25
2023-01-01T13:33:29.771Z,12.18
2023-01-01T13:36:35.762Z,12.25
2023-01-01T13:39:05.744Z,12.13
2023-01-01T13:41:41.510Z,12.21
2023-01-01T13:44:23.849Z,12.19
2023-01-01T13:47:29.886Z,12.21
2023-01-01T13:50:07.241Z,12.19
2023-01-01T13:53:06.497Z,12.13
2023-01-01T13:55:48.726Z,12.11
2023-01-01T13:58:51.513Z,12.10
2023-01-01T14:01:35.734Z,12.13
2023-01-01T14:04:10.602Z,12.14
2023-01-01T14:06:48.317Z,12.09
2023-01-01T14:09:21.379Z,12.15
2023-01-01T14:11:57.773Z,12.15
2023-01-01T17:01:13.499Z,11.42
2023-01-01T17:03:41.739Z,11.37
2023-01-01T17:06:11.249Z,11.41
2023-01-01T17:08:39.852Z,11.39
2023-01-01T17:11:11.106Z,11.48
2023-01-01T17:17:33.241Z,11.39
2023-01-01T17:20:01.565Z,11.44
2023-01-01T17:22:34.173Z,11.32
2023-01-01T17:25:03.001Z,11.38
2023-01-01T17:27:31.286Z,11.38
2023-01-01T17:29:59.653Z,11.38
2023-01-01T17:32:27.805Z,11.30
2023-01-01T17:35:04.292Z,11.36
2023-01-01T17:42:58.827Z,11.27
2023-01-01T17:45:27.284Z,11.14
2023-01-01T17:47:55.445Z,11.15
2023-01-01T17:50:24.973Z,11.20
2023-01-01T17:52:53.969Z,11.17
2023-01-01T17:55:22.058Z,11.18
2023-01-01T17:57:50.310Z,11.06
2023-01-01T18:00:18.561Z,11.03
2023-01-01T18:02:49.232Z,11.12
2023-01-01T18:05:17.613Z,11.07
2023-01-01T18:07:47.284Z,11.10
2023-01-01T18:10:15.540Z,11.02
2023-01-01T18:12:45.565Z,10.93
2023-01-01T18:15:13.762Z,10.94
2023-01-01T18:17:41.865Z,10.88
2023-01-01T18:20:11.847Z,10.97
2023-01-01T18:22:43.235Z,10.88
2023-01-01T18:25:13.681Z,10.86
2023-01-01T18:27:41.915Z,10.85
2023-01-01T18:30:12.808Z,10.88
2023-01-01T18:32:41.093Z,10.86
2023-01-01T18:35:10.427Z,10.84
2023-01-01T18:37:38.767Z,10.81
2023-01-01T18:40:15.619Z,10.74
2023-01-01T18:42:51.598Z,10.78
2023-01-01T18:45:21.849Z,10.74
2023-01-01T18:47:50.492Z,10.81
2023-01-01T18:50:24.113Z,10.80
2023-01-01T18:52:55.920Z,10.66
2023-01-01T18:55:28.273Z,10.71
2023-01-01T18:58:00.886Z,10.69
2023-01-01T19:00:35.397Z,10.66
2023-01-01T19:03:15.417Z,10.66
2023-01-01T19:05:44.973Z,10.67
2023-01-01T19:08:15.961Z,10.68
2023-01-01T19:10:53.825Z,10.65
2023-01-01T19:13:24.450Z,10.64
2023-01-01T19:15:55.892Z,10.69
2023-01-01T19:18:25.354Z,10.68
2023-01-01T19:21:03.774Z,10.68
2023-01-01T19:23:32.790Z,10.60
2023-01-01T19:26:05.467Z,10.68
2023-01-01T19:28:36.053Z,10.66
2023-01-01T19:31:07.652Z,10.67
2023-01-01T19:33:36.449Z,10.61
2023-01-01T19:36:05.500Z,10.53
2023-01-01T19:38:37.374Z,10.57
2023-01-01T19:41:08.371Z,10.56
2023-01-01T19:43:37.287Z,10.56
2023-01-01T19:46:10.272Z,10.56
2023-01-01T19:48:39.730Z,10.57
2023-01-01T19:51:08.426Z,10.57
2023-01-01T19:53:37.551Z,10.53
2023-01-01T19:56:10.230Z,10.62
2023-01-01T19:58:38.992Z,10.53
2023-01-01T20:01:07.900Z,10.59
2023-01-01T20:03:54.153Z,10.54
2023-01-01T20:06:23.705Z,10.58
2023-01-01T20:08:53.192Z,10.57
2023-01-01T20:11:23.560Z,10.45
2023-01-01T20:13:52.417Z,10.47
2023-01-01T20:16:21.029Z,10.57
2023-01-01T20:18:53.593Z,10.55
2023-01-01T20:21:40.104Z,10.46
2023-01-01T20:24:12.957Z,10.52
2023-01-01T20:34:16.772Z,10.44
2023-01-01T20:37:03.282Z,10.41
2023-01-01T20:39:32.631Z,10.43
2023-01-01T20:42:01.637Z,10.46
2023-01-01T20:44:31.750Z,10.36
2023-01-01T20:47:01.151Z,10.46
2023-01-01T20:49:36.172Z,10.47
2023-01-01T20:52:05.769Z,10.46
2023-01-01T20:54:34.579Z,10.44
2023-01-01T20:57:03.363Z,10.36
2023-01-01T20:59:35.866Z,10.50
2023-01-01T21:02:07.644Z,10.41
2023-01-01T21:04:46.431Z,10.44
2023-01-01T21:07:16.429Z,10.35
2023-01-01T21:09:50.385Z,10.36
2023-01-01T21:12:23.226Z,10.35
2023-01-01T21:15:02.543Z,10.42
2023-01-01T21:17:32.428Z,10.34
2023-01-01T21:20:05.487Z,10.43
2023-01-01T21:22:44.883Z,10.44
2023-01-01T21:25:50.424Z,10.44
2023-01-01T21:28:19.000Z,10.46
2023-01-01T21:30:54.427Z,10.40
2023-01-01T21:33:28.923Z,10.49
2023-01-01T21:36:07.167Z,10.39
2023-01-01T21:38:38.364Z,10.40
2023-01-01T21:41:24.043Z,10.54
2023-01-01T21:44:00.578Z,10.44
2023-01-01T21:46:43.609Z,10.40
2023-01-01T21:49:20.641Z,10.38
2023-01-01T21:51:58.945Z,10.38
2023-01-01T21:54:34.994Z,10.40
2023-01-01T21:57:17.819Z,10.35
2023-01-01T21:59:50.098Z,10.40
2023-01-01T22:02:45.348Z,10.43
2023-01-01T22:05:43.069Z,10.35
2023-01-01T22:08:32.515Z,10.47
2023-01-01T22:11:05.116Z,10.38
2023-01-01T22:13:38.622Z,10.35
2023-01-01T22:16:15.769Z,10.49
2023-01-01T22:18:46.950Z,10.39
2023-01-01T22:21:22.122Z,10.39
2023-01-01T22:24:08.308Z,10.38
2023-01-01T22:26:38.344Z,10.34
2023-01-01T22:29:26.966Z,10.33
2023-01-01T22:32:06.934Z,10.29
2023-01-01T22:34:35.615Z,10.34
2023-01-01T22:37:04.989Z,10.32
2023-01-01T22:39:38.179Z,10.41
2023-01-01T22:42:18.221Z,10.35
2023-01-01T22:44:59.720Z,10.29
2023-01-01T22:47:38.173Z,10.27
2023-01-01T22:50:10.910Z,10.35
2023-01-01T22:52:45.444Z,10.33
2023-01-01T22:55:15.639Z,10.29
2023-01-01T22:57:44.378Z,10.40
2023-01-01T23:00:15.978Z,10.39
2023-01-01T23:02:44.597Z,10.30
2023-01-01T23:05:13.736Z,10.34
2023-01-01T23:07:43.709Z,10.40
2023-01-01T23:10:18.844Z,10.36
2023-01-01T23:12:48.133Z,10.47
2023-01-01T23:15:36.756Z,10.46
2023-01-01T23:18:06.315Z,10.46
2023-01-01T23:20:34.957Z,10.48
2023-01-01T23:23:03.746Z,10.42
2023-01-01T23:25:34.006Z,10.39
2023-01-01T23:28:02.898Z,10.44
2023-01-01T23:30:31.645Z,10.44
2023-01-01T23:33:24.019Z,10.56
2023-01-01T23:35:53.997Z,10.50
2023-01-01T23:38:23.832Z,10.56
2023-01-01T23:40:53.627Z,10.59
2023-01-01T23:43:23.093Z,10.51
2023-01-01T23:45:51.921Z,10.58
2023-01-01T23:48:24.385Z,10.51
2023-01-01T23:50:53.919Z,10.55
2023-01-01T23:53:22.518Z,10.55
2023-01-01T23:55:54.330Z,10.57
2023-01-01T23:58:24.121Z,10.54
